Time;durP1;ratioP1;P1;durP2;ratioP2;P2;SDS_P1;SDS_P2;PMS_P1;PMS_P2;Temp;Humidity;BMP_temperature;BMP_pressure;BME280_temperature;BME280_humidity;BME280_pressure;Samples;Min_cycle;Max_cycle;Signal;HPM_P1;HPM_P2
2021/01/06 00:01:58;;;;;;;0.40;0.40;;;6.00;99.90;;;;;;6137638;23;20178;-95
2021/01/06 00:04:31;;;;;;;1.13;0.20;;;6.00;99.90;;;;;;6137185;23;20186;-93
2021/01/06 00:07:02;;;;;;;0.40;0.30;;;6.00;99.90;;;;;;6135842;23;20182;-93
2021/01/06 00:09:35;;;;;;;0.53;0.30;;;6.10;99.90;;;;;;6139304;23;20220;-93
2021/01/06 00:12:09;;;;;;;0.70;0.30;;;6.10;99.90;;;;;;6108517;23;20542;-95
2021/01/06 00:14:40;;;;;;;0.50;0.30;;;6.10;99.90;;;;;;6137075;23;20202;-94
2021/01/06 00:17:12;;;;;;;0.93;0.23;;;6.10;99.90;;;;;;6136254;23;20170;-93
2021/01/06 00:19:51;;;;;;;1.40;0.30;;;6.10;99.90;;;;;;6137322;23;20205;-93
2021/01/06 00:22:32;;;;;;;0.40;0.20;;;6.10;99.90;;;;;;6137612;23;20178;-93
2021/01/06 00:35:35;;;;;;;0.23;0.20;;;6.10;99.90;;;;;;6152747;23;20159;-95
2021/01/06 00:38:10;;;;;;;0.60;0.47;;;6.20;99.90;;;;;;6148330;23;20210;-91
2021/01/06 00:40:46;;;;;;;0.20;0.20;;;6.10;99.90;;;;;;6147495;23;20402;-93
2021/01/06 00:43:18;;;;;;;0.40;0.30;;;6.20;99.90;;;;;;6146412;23;20178;-96
2021/01/06 00:45:49;;;;;;;0.50;0.43;;;6.20;99.90;;;;;;6141947;23;20174;-89
2021/01/06 00:48:23;;;;;;;0.50;0.40;;;6.20;99.90;;;;;;6140900;23;20173;-96
2021/01/06 00:50:56;;;;;;;0.70;0.40;;;6.20;99.90;;;;;;6117903;23;20247;-96
2021/01/06 00:53:29;;;;;;;1.27;0.50;;;6.30;99.90;;;;;;6139352;23;20237;-96
2021/01/06 00:56:01;;;;;;;0.40;0.40;;;6.20;99.90;;;;;;6139833;23;20331;-96
2021/01/06 00:58:32;;;;;;;0.73;0.60;;;6.20;99.90;;;;;;6116897;23;20641;-96
2021/01/06 01:01:02;;;;;;;1.03;0.40;;;6.30;99.90;;;;;;6142066;23;20213;-96
2021/01/06 01:03:33;;;;;;;0.77;0.50;;;6.30;99.90;;;;;;6142873;23;20230;-96
2021/01/06 01:06:04;;;;;;;0.40;0.40;;;6.30;99.90;;;;;;6148059;23;20210;-95
2021/01/06 01:08:40;;;;;;;0.70;0.60;;;6.30;99.90;;;;;;6120761;23;20185;-95
2021/01/06 01:11:10;;;;;;;0.80;0.60;;;6.30;99.90;;;;;;6147140;23;20170;-96
2021/01/06 01:13:41;;;;;;;1.47;0.40;;;6.40;99.90;;;;;;6122695;23;20177;-96
2021/01/06 01:16:12;;;;;;;0.63;0.40;;;6.40;99.90;;;;;;6147971;23;20213;-96
2021/01/06 01:21:32;;;;;;;0.83;0.70;;;6.40;99.90;;;;;;6146069;23;20182;-96
2021/01/06 01:24:07;;;;;;;2.00;0.90;;;6.40;99.90;;;;;;6099728;23;20200;-94
2021/01/06 01:26:40;;;;;;;1.97;0.80;;;6.50;99.90;;;;;;6122053;23;20182;-95
2021/01/06 01:29:11;;;;;;;1.40;1.10;;;6.50;99.90;;;;;;6121774;23;20179;-93
2021/01/06 01:31:41;;;;;;;2.67;1.07;;;6.50;99.90;;;;;;6123195;23;20185;-94
2021/01/06 01:34:12;;;;;;;1.37;0.93;;;6.50;99.90;;;;;;6123980;23;20194;-94
2021/01/06 01:36:49;;;;;;;1.20;0.90;;;6.50;99.90;;;;;;6120548;23;20226;-95
2021/01/06 01:39:23;;;;;;;1.23;0.87;;;6.50;99.90;;;;;;6117517;23;20607;-94
2021/01/06 01:41:59;;;;;;;2.50;1.20;;;6.50;99.90;;;;;;6106669;23;20177;-94
2021/01/06 01:44:30;;;;;;;3.70;1.30;;;6.50;99.90;;;;;;6105655;23;20512;-93
2021/01/06 01:47:16;;;;;;;4.23;1.50;;;6.60;99.90;;;;;;6106995;23;20681;-94
2021/01/06 01:49:49;;;;;;;6.77;1.77;;;6.50;99.90;;;;;;6108147;23;20242;-93
2021/01/06 01:52:28;;;;;;;8.90;1.80;;;6.50;99.90;;;;;;6108231;23;20186;-94
2021/01/06 01:55:03;;;;;;;2.60;1.30;;;6.50;99.90;;;;;;6108916;23;20195;-94
2021/01/06 01:57:41;;;;;;;5.77;4.50;;;6.50;99.90;;;;;;6109133;23;20236;-94
2021/01/06 02:00:27;;;;;;;7.93;2.27;;;6.50;99.90;;;;;;6108996;23;20189;-94
2021/01/06 02:03:14;;;;;;;4.33;2.00;;;6.50;99.90;;;;;;6078728;23;20192;-91
2021/01/06 02:05:51;;;;;;;4.33;1.70;;;6.40;99.90;;;;;;6082651;23;20184;-94
2021/01/06 02:08:27;;;;;;;4.93;1.40;;;6.40;99.90;;;;;;6083333;23;20204;-93
2021/01/06 02:11:04;;;;;;;5.17;1.47;;;6.40;99.90;;;;;;6076981;23;20432;-93
2021/01/06 02:13:40;;;;;;;3.37;1.70;;;6.40;99.90;;;;;;6076124;23;20404;-94
2021/01/06 02:16:16;;;;;;;5.73;1.70;;;6.40;99.90;;;;;;6074338;23;20219;-93
2021/01/06 02:18:46;;;;;;;3.60;1.73;;;6.40;99.90;;;;;;6072700;23;20183;-93
2021/01/06 02:21:25;;;;;;;1.93;1.27;;;6.40;99.90;;;;;;6072875;23;20180;-93
2021/01/06 02:24:00;;;;;;;2.37;1.70;;;6.50;99.90;;;;;;6072427;23;20278;-92
2021/01/06 02:26:32;;;;;;;3.83;2.13;;;6.50;99.90;;;;;;6073629;23;20333;-93
2021/01/06 02:29:05;;;;;;;1.73;1.20;;;6.50;99.90;;;;;;6049911;23;20183;-94
2021/01/06 02:31:36;;;;;;;2.23;1.57;;;6.50;99.90;;;;;;6074012;23;20180;-92
2021/01/06 02:34:10;;;;;;;2.93;1.60;;;6.50;99.90;;;;;;6075084;23;20179;-93
2021/01/06 02:36:45;;;;;;;1.87;1.17;;;6.50;99.90;;;;;;6074707;23;20219;-93
2021/01/06 02:39:17;;;;;;;5.87;1.10;;;6.60;99.90;;;;;;6074645;23;20182;-94
2021/01/06 02:41:51;;;;;;;1.27;0.90;;;6.60;99.90;;;;;;6074176;23;20198;-93
2021/01/06 02:44:22;;;;;;;1.27;0.80;;;6.70;99.90;;;;;;6054043;23;20227;-93
2021/01/06 02:46:54;;;;;;;2.07;1.20;;;6.70;99.90;;;;;;6052997;23;20189;-94
2021/01/06 02:49:27;;;;;;;2.17;1.20;;;6.70;99.90;;;;;;6079360;23;20168;-94
2021/01/06 02:52:07;;;;;;;3.53;1.17;;;6.70;99.90;;;;;;6081082;23;20186;-95
2021/01/06 02:55:03;;;;;;;2.57;1.20;;;6.80;99.90;;;;;;6093818;23;20169;-95
2021/01/06 02:57:37;;;;;;;3.73;1.20;;;6.80;99.90;;;;;;6092528;23;20186;-95
2021/01/06 03:02:49;;;;;;;0.70;0.70;;;6.90;99.90;;;;;;6177935;23;20476;-89
2021/01/06 03:05:32;;;;;;;0.77;0.63;;;6.90;99.90;;;;;;6174251;23;20290;-95
2021/01/06 03:13:22;;;;;;;1.60;1.03;;;6.90;99.90;;;;;;6104074;23;20195;-94
2021/01/06 03:15:53;;;;;;;2.17;1.10;;;7.00;99.90;;;;;;6106833;23;20219;-95
2021/01/06 03:18:25;;;;;;;3.77;1.50;;;6.90;99.90;;;;;;6104760;23;20184;-96
2021/01/06 03:21:07;;;;;;;6.07;1.13;;;7.00;99.90;;;;;;6101615;23;20182;-95
2021/01/06 03:23:41;;;;;;;2.37;1.10;;;7.00;99.90;;;;;;6103928;23;20192;-95
2021/01/06 03:26:17;;;;;;;3.40;1.30;;;7.00;99.90;;;;;;6103054;23;20241;-95
2021/01/06 03:28:51;;;;;;;1.33;1.10;;;7.00;99.90;;;;;;6102061;23;20182;-95
2021/01/06 03:31:28;;;;;;;2.43;1.30;;;7.00;99.90;;;;;;6100434;23;20178;-95
2021/01/06 03:34:04;;;;;;;2.40;1.30;;;7.00;99.90;;;;;;6101782;23;20196;-94
2021/01/06 03:36:42;;;;;;;1.63;1.10;;;6.90;99.90;;;;;;6103618;23;20205;-96
2021/01/06 03:39:19;;;;;;;1.73;1.10;;;7.00;99.90;;;;;;6105256;23;20275;-93
2021/01/06 03:41:53;;;;;;;1.53;1.10;;;7.00;99.90;;;;;;6108078;23;20182;-95
2021/01/06 03:44:28;;;;;;;3.73;1.60;;;7.00;99.90;;;;;;6110576;23;20202;-94
2021/01/06 03:47:08;;;;;;;2.10;1.13;;;7.00;99.90;;;;;;6112265;23;20246;-94
2021/01/06 03:50:01;;;;;;;3.30;1.17;;;7.00;99.90;;;;;;6082241;23;20221;-95
2021/01/06 03:52:56;;;;;;;4.60;1.47;;;7.00;99.90;;;;;;6142315;23;20191;-96
2021/01/06 03:55:48;;;;;;;3.47;2.20;;;7.00;99.90;;;;;;6141428;23;20657;-95
2021/01/06 03:58:37;;;;;;;5.70;1.90;;;7.00;99.90;;;;;;6143093;23;20277;-96
2021/01/06 04:01:32;;;;;;;3.43;1.80;;;7.00;99.90;;;;;;6147722;23;20188;-96
2021/01/06 04:06:36;;;;;;;2.43;1.20;;;6.90;99.90;;;;;;6144526;23;20194;-96
2021/01/06 04:09:09;;;;;;;1.60;1.13;;;6.90;99.90;;;;;;6147993;23;20179;-96
2021/01/06 04:14:40;;;;;;;1.67;1.10;;;6.90;99.90;;;;;;6143436;23;20257;-96
2021/01/06 04:17:28;;;;;;;5.70;2.10;;;6.90;99.90;;;;;;6148637;23;20201;-96
2021/01/06 04:20:02;;;;;;;5.53;1.60;;;6.90;99.90;;;;;;6147766;23;20210;-96
2021/01/06 04:27:51;;;;;;;4.23;1.20;;;7.00;99.90;;;;;;6129552;23;20265;-96
2021/01/06 04:33:01;;;;;;;3.40;2.73;;;6.90;99.90;;;;;;6144837;23;20193;-96
2021/01/06 04:38:08;;;;;;;5.67;3.97;;;6.90;99.90;;;;;;6124746;23;20493;-96
2021/01/06 04:40:44;;;;;;;6.50;4.30;;;6.80;99.90;;;;;;6142439;23;20557;-95
2021/01/06 04:43:31;;;;;;;6.30;4.07;;;6.80;99.90;;;;;;6143574;23;20184;-96
2021/01/06 04:46:24;;;;;;;6.20;4.10;;;6.80;99.90;;;;;;6118121;23;20175;-96
2021/01/06 04:49:13;;;;;;;10.07;4.37;;;6.80;99.90;;;;;;6141345;23;20178;-96
2021/01/06 04:51:58;;;;;;;4.80;4.40;;;6.80;99.90;;;;;;6140407;23;20184;-95
2021/01/06 05:06:06;;;;;;;3.70;3.10;;;6.90;99.90;;;;;;6142105;23;20204;-96
2021/01/06 05:08:40;;;;;;;5.00;2.77;;;6.90;99.90;;;;;;6115766;23;20211;-95
2021/01/06 05:11:14;;;;;;;10.00;3.20;;;6.90;99.90;;;;;;6122244;23;20198;-94
2021/01/06 05:13:57;;;;;;;11.53;3.30;;;6.90;99.90;;;;;;6126020;23;20205;-93
2021/01/06 05:22:07;;;;;;;2.30;1.60;;;6.90;99.90;;;;;;6104292;23;20224;-96
2021/01/06 05:27:55;;;;;;;4.40;1.23;;;6.90;99.90;;;;;;6147626;23;20181;-96
2021/01/06 05:35:51;;;;;;;1.93;1.00;;;7.00;99.90;;;;;;6137054;23;20252;-96
2021/01/06 05:38:28;;;;;;;2.13;1.33;;;7.00;99.90;;;;;;6145952;23;20177;-96
2021/01/06 05:40:59;;;;;;;0.70;0.60;;;7.10;99.90;;;;;;6142375;23;20178;-96
2021/01/06 05:46:47;;;;;;;2.50;1.67;;;7.10;99.90;;;;;;6145031;23;20177;-96
2021/01/06 05:52:37;;;;;;;6.67;1.13;;;7.10;99.90;;;;;;6144354;23;20200;-96
2021/01/06 05:58:25;;;;;;;1.43;0.50;;;7.10;99.90;;;;;;6146272;23;20178;-96
2021/01/06 06:01:14;;;;;;;1.33;0.60;;;7.10;99.90;;;;;;6144754;23;20183;-96
2021/01/06 06:04:39;;;;;;;1.33;0.67;;;7.10;99.90;;;;;;6146356;23;20198;-96
2021/01/06 06:16:09;;;;;;;3.43;0.60;;;7.00;99.90;;;;;;6145973;23;20224;-96
2021/01/06 06:22:47;;;;;;;2.50;0.60;;;7.30;99.90;;;;;;6150116;23;20179;-96
2021/01/06 06:25:23;;;;;;;2.10;0.50;;;7.30;99.90;;;;;;6148570;23;20290;-96
2021/01/06 06:28:13;;;;;;;3.17;0.50;;;7.30;99.90;;;;;;6146461;23;20178;-96
2021/01/06 06:33:36;;;;;;;1.83;0.87;;;7.40;99.90;;;;;;6127994;23;20220;-94
2021/01/06 06:36:21;;;;;;;1.47;0.40;;;7.40;99.90;;;;;;6145490;23;20241;-95
2021/01/06 06:39:00;;;;;;;0.40;0.30;;;7.40;99.90;;;;;;6147395;23;20178;-96
2021/01/06 06:41:36;;;;;;;0.90;0.40;;;7.40;99.90;;;;;;6146677;23;20182;-96
2021/01/06 06:44:25;;;;;;;1.23;0.43;;;7.40;99.90;;;;;;6147407;23;20181;-96
2021/01/06 06:50:42;;;;;;;0.60;0.40;;;7.30;99.90;;;;;;6147254;23;20202;-96
2021/01/06 06:53:21;;;;;;;3.03;1.00;;;7.40;99.90;;;;;;6148474;23;20218;-96
2021/01/06 07:20:15;;;;;;;1.90;0.70;;;7.20;99.90;;;;;;6131095;23;20221;-93
2021/01/06 07:36:14;;;;;;;2.20;0.50;;;7.10;99.90;;;;;;6123210;23;20229;-96
2021/01/06 07:38:47;;;;;;;0.90;0.60;;;7.00;99.90;;;;;;6106293;23;20215;-96
2021/01/06 07:41:20;;;;;;;0.77;0.50;;;7.20;99.90;;;;;;6116599;23;20205;-96
2021/01/06 07:44:09;;;;;;;1.23;0.70;;;7.10;99.90;;;;;;6094144;23;20189;-96
2021/01/06 07:46:51;;;;;;;2.50;0.60;;;7.20;99.90;;;;;;6118758;23;20176;-96
2021/01/06 07:49:34;;;;;;;1.80;0.60;;;7.10;99.90;;;;;;6093691;23;20595;-96
2021/01/06 07:52:16;;;;;;;3.50;0.93;;;7.20;99.90;;;;;;6118550;23;20180;-96
2021/01/06 08:19:19;;;;;;;3.03;0.50;;;7.20;99.90;;;;;;6145274;23;20345;-96
2021/01/06 08:22:01;;;;;;;3.60;0.30;;;7.20;99.90;;;;;;6121560;23;20269;-95
2021/01/06 08:27:35;;;;;;;1.07;0.43;;;7.30;99.90;;;;;;6149464;23;20202;-96
2021/01/06 08:30:21;;;;;;;1.80;0.50;;;7.30;99.90;;;;;;6150126;23;20166;-96
2021/01/06 08:33:11;;;;;;;0.50;0.30;;;7.20;99.90;;;;;;6128103;23;20182;-96
2021/01/06 08:35:47;;;;;;;2.10;0.40;;;7.30;99.90;;;;;;6144494;23;20210;-96
2021/01/06 08:38:31;;;;;;;0.53;0.30;;;7.20;99.90;;;;;;6118974;23;20170;-96
2021/01/06 08:41:19;;;;;;;0.30;0.30;;;7.20;99.90;;;;;;6141716;23;20171;-96
2021/01/06 08:43:50;;;;;;;0.20;0.20;;;7.20;99.90;;;;;;6143439;23;20210;-95
2021/01/06 08:46:26;;;;;;;1.20;0.40;;;7.20;99.90;;;;;;6150822;23;20202;-96
2021/01/06 08:49:10;;;;;;;0.40;0.30;;;7.30;99.90;;;;;;6147429;23;20178;-96
2021/01/06 08:51:48;;;;;;;0.27;0.27;;;7.30;99.90;;;;;;6147449;23;20231;-96
2021/01/06 09:29:22;;;;;;;1.40;0.20;;;7.10;99.90;;;;;;6131083;23;20229;-96
2021/01/06 09:31:58;;;;;;;1.43;0.30;;;7.10;99.90;;;;;;6099785;23;20181;-96
2021/01/06 09:34:32;;;;;;;0.40;0.17;;;7.20;99.90;;;;;;6144827;23;20201;-96
2021/01/06 09:37:05;;;;;;;0.67;0.37;;;7.10;99.90;;;;;;6140844;23;20217;-96
2021/01/06 09:39:40;;;;;;;0.20;0.20;;;7.10;99.90;;;;;;6140240;23;20202;-96
2021/01/06 09:42:15;;;;;;;1.73;0.33;;;7.10;99.90;;;;;;6150744;23;20166;-96
2021/01/06 09:45:05;;;;;;;0.33;0.30;;;7.10;99.90;;;;;;6151395;23;20188;-96
2021/01/06 09:47:41;;;;;;;0.30;0.30;;;7.10;99.90;;;;;;6149484;23;20166;-95
2021/01/06 09:56:25;;;;;;;0.83;0.20;;;7.10;99.90;;;;;;6140379;23;20256;-96
2021/01/06 09:58:58;;;;;;;0.43;0.40;;;7.00;99.90;;;;;;6142471;23;20178;-96
2021/01/06 10:01:38;;;;;;;0.30;0.20;;;7.00;99.90;;;;;;6121334;23;20174;-96
2021/01/06 10:04:16;;;;;;;0.43;0.20;;;7.10;99.90;;;;;;6142636;23;20181;-96
2021/01/06 10:07:14;;;;;;;0.37;0.30;;;7.10;99.90;;;;;;6139763;23;20181;-95
2021/01/06 10:09:51;;;;;;;2.17;0.40;;;7.10;99.90;;;;;;6116953;23;20182;-96
2021/01/06 10:13:00;;;;;;;1.00;0.23;;;7.10;99.90;;;;;;6116801;23;20192;-96
2021/01/06 10:15:44;;;;;;;1.27;0.30;;;7.00;99.90;;;;;;6138066;23;20179;-96
2021/01/06 10:18:30;;;;;;;0.23;0.20;;;7.00;99.90;;;;;;6139317;23;20198;-96
2021/01/06 10:24:41;;;;;;;0.83;0.20;;;7.00;99.90;;;;;;6140047;23;20335;-96
2021/01/06 10:30:26;;;;;;;1.07;0.30;;;7.00;99.90;;;;;;6137222;23;20182;-96
2021/01/06 10:33:15;;;;;;;0.40;0.30;;;7.00;99.90;;;;;;6138541;23;20173;-96
2021/01/06 10:36:11;;;;;;;0.53;0.30;;;7.00;99.90;;;;;;6137264;23;20178;-96
2021/01/06 10:38:52;;;;;;;1.07;0.50;;;7.00;99.90;;;;;;6136192;23;20181;-96
2021/01/06 10:41:32;;;;;;;1.03;0.30;;;7.00;99.90;;;;;;6136294;23;20225;-96
2021/01/06 10:44:04;;;;;;;0.40;0.30;;;7.00;99.90;;;;;;6136635;23;20269;-96
2021/01/06 10:46:48;;;;;;;1.10;0.40;;;7.00;99.90;;;;;;6112973;23;20183;-96
2021/01/06 10:53:05;;;;;;;0.40;0.40;;;7.00;99.90;;;;;;6133886;23;20179;-95
2021/01/06 10:55:43;;;;;;;0.20;0.20;;;6.90;99.90;;;;;;6136691;23;20182;-96
2021/01/06 10:58:24;;;;;;;1.47;0.40;;;7.00;99.90;;;;;;6137122;23;20576;-96
2021/01/06 11:05:07;;;;;;;1.10;0.50;;;7.00;99.90;;;;;;6137368;23;20244;-96
2021/01/06 11:08:15;;;;;;;1.90;0.37;;;6.90;99.90;;;;;;6136753;23;20186;-96
2021/01/06 11:11:15;;;;;;;0.40;0.33;;;6.90;99.90;;;;;;6114403;23;20175;-96
2021/01/06 11:14:27;;;;;;;0.30;0.30;;;6.90;99.90;;;;;;6137551;23;20273;-95
2021/01/06 11:17:18;;;;;;;0.40;0.30;;;6.90;99.90;;;;;;6051825;23;20213;-96
2021/01/06 11:20:24;;;;;;;0.77;0.30;;;6.90;99.90;;;;;;6116262;23;20185;-96
2021/01/06 11:23:59;;;;;;;0.20;0.20;;;6.90;99.90;;;;;;6139019;23;20237;-96
2021/01/06 11:26:53;;;;;;;0.40;0.30;;;6.90;99.90;;;;;;6024738;23;20192;-96
2021/01/06 11:29:54;;;;;;;0.50;0.33;;;6.90;99.90;;;;;;6142222;23;20212;-96
2021/01/06 11:32:39;;;;;;;0.50;0.30;;;6.80;99.90;;;;;;6144083;23;20332;-96
2021/01/06 11:35:35;;;;;;;1.43;0.60;;;6.80;99.90;;;;;;6143665;23;20176;-96
2021/01/06 11:38:27;;;;;;;0.57;0.40;;;6.80;99.90;;;;;;6143620;23;20226;-96
2021/01/06 11:41:01;;;;;;;0.93;0.50;;;6.80;99.90;;;;;;6120480;23;20245;-96
2021/01/06 11:43:58;;;;;;;0.57;0.40;;;6.80;99.90;;;;;;6143505;23;20180;-96
2021/01/06 11:46:50;;;;;;;0.90;0.37;;;6.70;99.90;;;;;;6146301;23;20182;-96
2021/01/06 11:52:40;;;;;;;1.30;0.50;;;6.70;99.90;;;;;;6143646;23;20218;-96
2021/01/06 12:17:30;;;;;;;1.67;0.60;;;6.70;99.90;;;;;;6143440;23;20279;-96
2021/01/06 12:22:38;;;;;;;1.17;0.50;;;6.70;99.90;;;;;;6138220;23;20209;-96
2021/01/06 12:25:44;;;;;;;2.07;0.60;;;6.70;99.90;;;;;;6143704;23;20230;-96
2021/01/06 12:28:42;;;;;;;1.37;0.50;;;6.70;99.90;;;;;;6054127;23;20227;-96
2021/01/06 12:31:46;;;;;;;2.37;0.80;;;6.70;99.90;;;;;;6125856;23;20190;-96
2021/01/06 12:34:28;;;;;;;1.03;0.50;;;6.60;99.90;;;;;;6143171;23;20181;-96
2021/01/06 12:37:21;;;;;;;1.20;0.50;;;6.60;99.90;;;;;;6139553;23;20194;-96
2021/01/06 12:40:16;;;;;;;1.37;0.70;;;6.60;99.90;;;;;;6141195;23;20281;-96
2021/01/06 12:42:55;;;;;;;2.33;0.83;;;6.60;99.90;;;;;;6143845;23;20181;-96
2021/01/06 12:45:30;;;;;;;3.07;0.90;;;6.60;99.90;;;;;;6143614;23;20188;-96
2021/01/06 12:48:06;;;;;;;2.70;1.00;;;6.60;99.90;;;;;;6147192;23;20206;-96
2021/01/06 12:50:55;;;;;;;3.40;0.97;;;6.60;99.90;;;;;;6150419;23;20198;-96
2021/01/06 12:53:30;;;;;;;1.33;0.73;;;6.60;99.90;;;;;;6142199;23;20183;-96
2021/01/06 12:56:14;;;;;;;3.53;1.10;;;6.50;99.90;;;;;;6145447;23;20181;-96
2021/01/06 13:02:09;;;;;;;2.00;0.70;;;6.50;99.90;;;;;;6145219;23;20222;-96
2021/01/06 13:04:43;;;;;;;0.80;0.70;;;6.50;99.90;;;;;;6121685;23;20170;-96
2021/01/06 13:07:28;;;;;;;1.93;0.70;;;6.50;99.90;;;;;;6123793;23;20204;-96
2021/01/06 13:10:08;;;;;;;1.30;0.60;;;6.60;99.90;;;;;;6121793;23;20230;-96
2021/01/06 13:12:49;;;;;;;0.50;0.47;;;6.50;99.90;;;;;;6146575;23;20181;-96
2021/01/06 13:15:28;;;;;;;1.27;0.50;;;6.50;99.90;;;;;;6149363;23;20166;-96
2021/01/06 13:18:07;;;;;;;1.23;0.50;;;6.50;99.90;;;;;;6149987;23;20193;-96
2021/01/06 13:20:46;;;;;;;0.57;0.40;;;6.40;99.90;;;;;;6124184;23;20229;-95
2021/01/06 13:23:42;;;;;;;1.07;0.40;;;6.40;99.90;;;;;;6125588;23;20198;-96
2021/01/06 13:26:36;;;;;;;0.53;0.37;;;6.40;99.90;;;;;;6150814;23;20166;-96
2021/01/06 13:29:30;;;;;;;0.63;0.33;;;6.30;99.90;;;;;;6148131;23;20221;-95
2021/01/06 13:32:37;;;;;;;1.97;0.40;;;6.30;99.90;;;;;;6125759;23;20170;-95
2021/01/06 13:35:21;;;;;;;2.47;0.30;;;6.30;99.90;;;;;;6148645;23;20267;-95
2021/01/06 13:38:14;;;;;;;0.90;0.30;;;6.40;99.90;;;;;;6149854;23;20198;-95
2021/01/06 13:40:49;;;;;;;0.70;0.30;;;6.40;99.90;;;;;;6150031;23;20206;-96
2021/01/06 13:43:31;;;;;;;1.77;0.37;;;6.40;99.90;;;;;;6149441;23;20249;-96
2021/01/06 13:46:13;;;;;;;0.30;0.20;;;6.50;99.90;;;;;;6124691;23;20204;-96
2021/01/06 13:49:10;;;;;;;0.40;0.30;;;6.40;99.90;;;;;;6147492;23;20181;-96
2021/01/06 13:52:02;;;;;;;0.23;0.20;;;6.50;99.90;;;;;;6149898;23;20194;-96
2021/01/06 13:55:03;;;;;;;0.70;0.20;;;6.50;99.90;;;;;;6148819;23;20167;-95
2021/01/06 13:57:58;;;;;;;0.20;0.20;;;6.50;99.90;;;;;;6125553;23;20265;-96
2021/01/06 14:00:42;;;;;;;1.30;0.40;;;6.50;99.90;;;;;;6122289;23;20179;-95
2021/01/06 14:03:37;;;;;;;0.20;0.20;;;6.50;99.90;;;;;;6145246;23;20244;-95
2021/01/06 14:06:16;;;;;;;0.20;0.20;;;6.50;99.90;;;;;;6105800;23;20198;-95
2021/01/06 14:09:08;;;;;;;0.20;0.20;;;6.50;99.90;;;;;;6151010;23;20606;-96
2021/01/06 14:12:10;;;;;;;0.70;0.20;;;6.60;99.90;;;;;;6150622;23;20222;-96
2021/01/06 14:22:50;;;;;;;0.87;0.60;;;6.60;99.90;;;;;;6098093;23;20261;-96
2021/01/06 14:25:36;;;;;;;0.30;0.30;;;6.60;99.90;;;;;;6149057;23;20174;-96
2021/01/06 14:28:20;;;;;;;0.30;0.30;;;6.60;99.90;;;;;;6117289;23;20175;-96
2021/01/06 14:30:59;;;;;;;0.30;0.30;;;6.60;99.90;;;;;;6115941;23;20185;-96
2021/01/06 14:33:45;;;;;;;0.50;0.30;;;6.60;99.90;;;;;;6108345;23;20187;-96
2021/01/06 14:36:35;;;;;;;0.37;0.30;;;6.60;99.90;;;;;;6112083;23;20203;-96
2021/01/06 14:39:39;;;;;;;1.57;0.40;;;6.60;99.90;;;;;;6111912;23;20175;-96
2021/01/06 14:42:23;;;;;;;0.93;0.30;;;6.60;99.90;;;;;;6116509;23;20200;-96
2021/01/06 14:45:11;;;;;;;0.70;0.60;;;6.60;99.90;;;;;;6119412;23;20171;-96
2021/01/06 14:50:57;;;;;;;1.57;0.50;;;6.60;99.90;;;;;;6138765;23;20225;-96
2021/01/06 14:53:34;;;;;;;0.30;0.30;;;6.60;99.90;;;;;;6114269;23;20257;-96
2021/01/06 14:57:02;;;;;;;0.30;0.30;;;6.60;99.90;;;;;;6139387;23;20241;-96
2021/01/06 15:05:36;;;;;;;0.40;0.20;;;6.60;99.90;;;;;;6136197;23;20174;-95
2021/01/06 15:11:42;;;;;;;0.20;0.20;;;6.60;99.90;;;;;;6140137;23;20486;-96
2021/01/06 15:14:18;;;;;;;0.30;0.30;;;6.70;99.90;;;;;;6131007;23;20203;-95
2021/01/06 15:16:54;;;;;;;0.27;0.20;;;6.60;99.90;;;;;;6148117;23;20209;-96
2021/01/06 15:19:30;;;;;;;0.30;0.20;;;6.60;99.90;;;;;;6149288;23;20221;-95
2021/01/06 15:22:05;;;;;;;0.33;0.30;;;6.60;99.90;;;;;;6124603;23;20182;-96
2021/01/06 15:24:51;;;;;;;0.30;0.30;;;6.60;99.90;;;;;;6150319;23;20212;-96
2021/01/06 15:27:27;;;;;;;0.20;0.20;;;6.60;99.90;;;;;;6149810;23;20225;-95
2021/01/06 15:33:21;;;;;;;0.30;0.30;;;6.60;99.90;;;;;;6150270;23;20170;-95
2021/01/06 15:35:54;;;;;;;0.20;0.20;;;6.70;99.90;;;;;;6151510;23;20173;-96
2021/01/06 15:41:40;;;;;;;0.63;0.10;;;6.70;99.90;;;;;;6149606;23;20235;-93
2021/01/06 15:44:45;;;;;;;0.30;0.30;;;6.70;99.90;;;;;;6150947;23;20230;-96
2021/01/06 15:47:21;;;;;;;0.50;0.30;;;6.70;99.90;;;;;;6151950;23;20285;-96
2021/01/06 15:52:25;;;;;;;0.20;0.20;;;6.70;99.90;;;;;;6149065;23;20170;-96
2021/01/06 16:02:35;;;;;;;0.23;0.23;;;6.80;99.90;;;;;;6144077;23;20506;-95
2021/01/06 16:05:30;;;;;;;0.60;0.30;;;6.70;99.90;;;;;;6139945;23;20178;-95
2021/01/06 16:08:37;;;;;;;0.30;0.20;;;6.70;99.90;;;;;;6145692;23;20170;-96
2021/01/06 16:11:18;;;;;;;0.47;0.37;;;6.70;99.90;;;;;;6149396;23;20174;-96
2021/01/06 16:13:55;;;;;;;0.30;0.30;;;6.70;99.90;;;;;;6122257;23;20222;-96
2021/01/06 16:16:44;;;;;;;0.30;0.30;;;6.80;99.90;;;;;;6140963;23;20189;-96
2021/01/06 16:19:19;;;;;;;0.60;0.30;;;6.70;99.90;;;;;;6143813;23;20192;-96
2021/01/06 16:21:50;;;;;;;0.37;0.37;;;6.70;99.90;;;;;;6141876;23;20194;-95
2021/01/06 16:27:22;;;;;;;0.20;0.20;;;6.80;99.90;;;;;;6147336;23;20242;-96
2021/01/06 16:30:03;;;;;;;0.30;0.30;;;6.70;99.90;;;;;;6151635;23;20182;-96
2021/01/06 16:32:36;;;;;;;0.60;0.20;;;6.70;99.90;;;;;;6151886;23;20181;-95
2021/01/06 16:40:37;;;;;;;3.50;0.47;;;6.70;99.90;;;;;;6148991;23;20225;-96
2021/01/06 16:43:18;;;;;;;0.70;0.40;;;6.70;99.90;;;;;;6148061;23;20186;-96
2021/01/06 16:46:12;;;;;;;0.97;0.40;;;6.70;99.90;;;;;;6121947;23;20218;-96
2021/01/06 16:49:12;;;;;;;;;;;;;;;;;;;;;
2021/01/06 16:51:52;;;;;;;1.07;1.00;;;6.70;99.90;;;;;;6145232;23;20213;-96
2021/01/06 16:54:27;;;;;;;1.10;0.60;;;6.70;99.90;;;;;;6146429;23;20174;-96
2021/01/06 16:59:55;;;;;;;1.10;0.60;;;6.80;99.90;;;;;;6083328;23;20236;-96
2021/01/06 17:02:35;;;;;;;0.73;0.67;;;6.80;99.90;;;;;;6144851;23;20215;-96
2021/01/06 17:05:09;;;;;;;1.47;0.50;;;6.70;99.90;;;;;;6119174;23;20188;-96
2021/01/06 17:07:56;;;;;;;3.03;0.60;;;6.80;99.90;;;;;;6146895;23;20170;-96
2021/01/06 17:10:35;;;;;;;2.73;0.70;;;6.80;99.90;;;;;;6145556;23;20205;-96
2021/01/06 17:13:11;;;;;;;1.33;0.60;;;6.80;99.90;;;;;;6145151;23;20162;-96
2021/01/06 17:15:56;;;;;;;0.63;0.50;;;6.80;99.90;;;;;;6144516;23;20267;-96
2021/01/06 17:18:33;;;;;;;0.40;0.30;;;6.90;99.90;;;;;;6144294;23;20200;-96
2021/01/06 17:21:13;;;;;;;1.10;0.47;;;6.90;99.90;;;;;;6141171;23;20525;-95
2021/01/06 17:23:47;;;;;;;0.77;0.60;;;6.90;99.90;;;;;;6135692;23;20178;-96
2021/01/06 17:26:23;;;;;;;1.00;0.40;;;6.90;99.90;;;;;;6135790;23;20188;-96
2021/01/06 17:29:19;;;;;;;4.67;0.97;;;7.00;99.90;;;;;;6136993;23;20237;-96
2021/01/06 17:32:09;;;;;;;2.93;0.60;;;7.00;99.90;;;;;;6139344;23;20194;-96
2021/01/06 17:34:41;;;;;;;1.83;0.50;;;6.90;99.90;;;;;;6127922;23;20237;-96
2021/01/06 17:53:39;;;;;;;4.10;0.73;;;7.30;99.90;;;;;;6163265;23;20196;-96
2021/01/06 17:56:15;;;;;;;3.37;0.60;;;7.40;99.90;;;;;;6165273;23;20192;-90
2021/01/06 17:58:51;;;;;;;1.57;0.73;;;7.40;99.90;;;;;;6159135;23;20201;-90
2021/01/06 18:01:23;;;;;;;1.30;0.73;;;7.40;99.90;;;;;;6157838;23;20185;-92
2021/01/06 18:03:59;;;;;;;4.17;1.13;;;7.50;99.90;;;;;;6157910;23;20193;-92
2021/01/06 18:06:31;;;;;;;8.53;1.20;;;7.50;99.90;;;;;;6160809;23;20192;-91
2021/01/06 18:09:07;;;;;;;4.07;1.17;;;7.50;99.90;;;;;;6160473;23;20173;-92
2021/01/06 18:11:37;;;;;;;4.00;1.03;;;7.50;99.90;;;;;;6157730;23;20183;-92
2021/01/06 18:14:08;;;;;;;6.67;1.30;;;7.50;99.90;;;;;;6161041;23;20182;-91
2021/01/06 18:16:40;;;;;;;3.90;1.10;;;7.50;99.90;;;;;;6161462;23;20181;-93
2021/01/06 18:19:20;;;;;;;2.90;1.00;;;7.50;99.90;;;;;;6163205;23;20206;-92
2021/01/06 18:22:04;;;;;;;5.70;0.90;;;7.60;99.90;;;;;;6163235;23;20259;-92
2021/01/06 18:24:37;;;;;;;2.70;0.70;;;7.60;99.90;;;;;;6164313;23;20185;-94
2021/01/06 18:27:09;;;;;;;1.53;0.60;;;7.60;99.90;;;;;;6159990;23;20186;-93
2021/01/06 18:29:41;;;;;;;0.80;0.50;;;7.70;99.90;;;;;;6159497;23;20631;-92
2021/01/06 18:32:14;;;;;;;1.20;0.80;;;7.70;99.90;;;;;;6159780;23;20173;-92
2021/01/06 18:34:47;;;;;;;0.77;0.60;;;7.70;99.90;;;;;;6159305;23;20560;-92
2021/01/06 18:37:23;;;;;;;10.07;1.37;;;7.70;99.90;;;;;;6159617;23;20507;-93
2021/01/06 18:40:11;;;;;;;1.77;0.93;;;7.80;99.90;;;;;;6160248;23;20200;-92
2021/01/06 18:42:42;;;;;;;2.47;0.90;;;7.80;99.90;;;;;;6160852;23;20227;-93
2021/01/06 18:45:14;;;;;;;1.40;0.90;;;7.80;99.90;;;;;;6159984;23;20166;-91
2021/01/06 18:47:46;;;;;;;2.30;0.80;;;7.80;99.90;;;;;;6160967;23;20248;-90
2021/01/06 18:50:28;;;;;;;2.83;1.17;;;7.80;99.90;;;;;;6177498;23;20226;-92
2021/01/06 18:53:14;;;;;;;1.43;1.03;;;7.80;99.90;;;;;;6179675;23;20180;-90
2021/01/06 18:55:46;;;;;;;2.23;0.93;;;7.80;99.90;;;;;;6165659;23;20198;-92
2021/01/06 18:58:29;;;;;;;1.20;0.80;;;7.80;99.90;;;;;;6133738;23;20205;-90
2021/01/06 19:01:19;;;;;;;2.43;1.20;;;7.90;99.90;;;;;;6131742;23;20258;-90
2021/01/06 19:03:55;;;;;;;2.13;0.90;;;8.00;99.90;;;;;;6105520;23;20207;-90
2021/01/06 19:06:34;;;;;;;3.80;1.20;;;8.00;99.90;;;;;;6134501;23;20249;-91
2021/01/06 19:09:08;;;;;;;3.40;1.03;;;8.10;99.90;;;;;;6139819;23;20201;-92
2021/01/06 19:14:29;;;;;;;3.03;0.80;;;8.30;99.90;;;;;;6139144;23;20182;-91
2021/01/06 19:17:11;;;;;;;2.40;0.80;;;8.40;99.90;;;;;;6151380;23;20391;-91
2021/01/06 19:19:56;;;;;;;1.67;0.73;;;8.50;99.90;;;;;;6151789;23;20166;-91